createdAt,value
2023-01-23T00:02:28.449Z,3.20
2023-01-23T00:07:33.513Z,4.00
2023-01-23T00:12:37.104Z,3.27
2023-01-23T00:17:41.795Z,3.83
2023-01-23T00:22:46.784Z,2.50
2023-01-23T00:27:50.301Z,2.00
2023-01-23T00:32:53.840Z,2.17
2023-01-23T00:37:58.984Z,1.83
2023-01-23T00:43:02.743Z,2.10
2023-01-23T00:48:06.574Z,2.03
2023-01-23T00:53:12.830Z,2.03
2023-01-23T00:58:16.380Z,1.73
2023-01-23T01:03:20.481Z,2.43
2023-01-23T01:08:25.578Z,2.40
2023-01-23T01:13:29.289Z,2.53
2023-01-23T01:18:33.160Z,2.03
2023-01-23T01:23:39.058Z,2.63
2023-01-23T01:28:43.151Z,2.47
2023-01-23T01:33:46.830Z,2.87
2023-01-23T01:38:52.223Z,2.50
2023-01-23T01:43:57.096Z,2.07
2023-01-23T01:49:07.470Z,2.33
2023-01-23T01:54:19.986Z,2.57
2023-01-23T01:59:26.565Z,2.53
2023-01-23T02:04:30.187Z,1.97
2023-01-23T02:09:36.453Z,2.57
2023-01-23T02:14:40.193Z,2.23
2023-01-23T02:19:52.845Z,2.40
2023-01-23T02:25:07.446Z,2.90
2023-01-23T02:30:13.855Z,1.83
2023-01-23T02:35:25.458Z,2.87
2023-01-23T02:40:36.500Z,2.20
2023-01-23T02:45:44.155Z,2.03
2023-01-23T02:50:49.670Z,2.07
2023-01-23T02:55:53.244Z,2.27
2023-01-23T03:01:00.927Z,2.23
2023-01-23T03:06:06.027Z,2.10
2023-01-23T03:11:09.686Z,2.40
2023-01-23T03:16:14.660Z,2.20
2023-01-23T03:21:18.375Z,3.03
2023-01-23T03:26:22.032Z,2.57
2023-01-23T03:31:27.639Z,1.80
2023-01-23T03:36:31.285Z,2.10
2023-01-23T03:41:36.606Z,1.57
2023-01-23T03:46:42.738Z,2.07
2023-01-23T03:51:46.706Z,2.67
2023-01-23T03:56:50.487Z,2.63
2023-01-23T04:02:21.415Z,2.50
2023-01-23T04:07:25.545Z,2.83
2023-01-23T04:12:29.290Z,2.70
2023-01-23T04:17:34.327Z,3.90
2023-01-23T04:22:38.031Z,4.30
2023-01-23T04:27:42.463Z,4.37
2023-01-23T04:32:49.053Z,3.60
2023-01-23T04:37:55.343Z,3.73
2023-01-23T04:42:59.391Z,3.67
2023-01-23T04:48:18.471Z,3.20
2023-01-23T04:53:22.068Z,2.50
2023-01-23T04:58:34.626Z,2.93
2023-01-23T05:03:42.467Z,2.37
2023-01-23T05:08:46.278Z,3.00
2023-01-23T05:14:08.487Z,1.80
2023-01-23T05:19:13.569Z,2.27
2023-01-23T05:24:17.814Z,2.23
2023-01-23T05:29:22.595Z,2.33
2023-01-23T05:34:37.358Z,2.23
2023-01-23T05:39:47.033Z,2.60
2023-01-23T05:44:51.646Z,2.40
2023-01-23T05:50:09.232Z,2.53
2023-01-23T05:55:14.921Z,4.00
2023-01-23T06:00:37.692Z,2.90
2023-01-23T06:06:11.687Z,3.10
2023-01-23T06:11:15.311Z,2.73
2023-01-23T06:16:19.037Z,2.30
2023-01-23T06:21:24.488Z,2.40
2023-01-23T06:26:28.206Z,4.07
2023-01-23T06:31:33.169Z,2.87
2023-01-23T06:36:40.210Z,3.00
2023-01-23T06:41:45.363Z,2.63
2023-01-23T06:46:55.188Z,4.00
2023-01-23T06:52:02.403Z,3.33
2023-01-23T06:57:06.696Z,3.00
2023-01-23T07:02:12.621Z,2.63
2023-01-23T07:07:27.096Z,3.83
2023-01-23T07:12:30.894Z,2.93
2023-01-23T07:17:34.635Z,3.10
2023-01-23T07:22:39.677Z,3.00
2023-01-23T07:27:43.497Z,3.10
2023-01-23T07:32:47.073Z,3.93
2023-01-23T07:37:52.131Z,2.50
2023-01-23T07:42:57.488Z,2.30
2023-01-23T07:48:01.122Z,2.70
2023-01-23T07:53:06.517Z,1.93
2023-01-23T07:58:10.126Z,1.70
2023-01-23T08:03:14.049Z,2.50
2023-01-23T08:08:18.977Z,2.60
2023-01-23T08:13:22.589Z,2.70
2023-01-23T08:18:26.851Z,2.83
2023-01-23T08:23:34.020Z,2.30
2023-01-23T08:28:37.753Z,2.40
2023-01-23T08:33:41.398Z,2.20
2023-01-23T08:38:46.381Z,2.20
2023-01-23T08:43:49.929Z,2.20
2023-01-23T08:48:53.497Z,1.60
2023-01-23T08:53:58.459Z,2.77
2023-01-23T08:59:02.160Z,2.63
2023-01-23T09:04:06.449Z,2.37
2023-01-23T09:09:11.437Z,3.00
2023-01-23T09:14:15.479Z,4.23
2023-01-23T09:19:19.185Z,4.67
2023-01-23T09:24:24.172Z,4.70
2023-01-23T09:29:27.728Z,4.40
2023-01-23T09:34:31.944Z,2.80
2023-01-23T09:39:37.111Z,3.27
2023-01-23T09:44:43.449Z,1.80
2023-01-23T09:49:53.266Z,2.00
2023-01-23T09:55:03.692Z,2.03
2023-01-23T10:00:14.817Z,2.00
2023-01-23T10:05:22.293Z,2.40
2023-01-23T10:10:52.718Z,2.40
2023-01-23T10:16:16.232Z,2.47
2023-01-23T10:21:29.745Z,2.50
2023-01-23T10:26:39.028Z,3.80
2023-01-23T10:31:47.166Z,3.90
2023-01-23T10:37:04.307Z,3.00
2023-01-23T10:42:12.592Z,3.53
2023-01-23T10:47:21.930Z,3.17
2023-01-23T10:52:35.386Z,2.07
2023-01-23T10:57:48.424Z,3.20
2023-01-23T11:02:52.249Z,1.93
2023-01-23T11:07:56.641Z,2.73
2023-01-23T11:13:03.536Z,3.53
2023-01-23T11:18:31.484Z,2.77
2023-01-23T11:23:35.527Z,2.30
2023-01-23T11:28:51.587Z,3.70
2023-01-23T11:33:59.991Z,3.07
2023-01-23T11:39:16.784Z,3.47
2023-01-23T11:44:24.387Z,2.57
2023-01-23T11:49:44.095Z,2.70
2023-01-23T11:55:04.570Z,3.50
2023-01-23T12:00:25.579Z,2.43
2023-01-23T12:11:34.482Z,3.47
2023-01-23T12:17:08.686Z,2.43
2023-01-23T12:22:20.150Z,2.63
2023-01-23T12:27:34.274Z,1.90
2023-01-23T12:32:54.083Z,2.57
2023-01-23T12:38:22.199Z,1.77
2023-01-23T12:43:37.381Z,1.77
2023-01-23T12:48:46.711Z,2.27
2023-01-23T12:53:54.514Z,2.10
2023-01-23T12:59:09.012Z,2.30
2023-01-23T13:04:37.250Z,1.63
2023-01-23T13:09:55.678Z,1.37
2023-01-23T13:15:39.187Z,1.60
2023-01-23T13:21:15.190Z,1.53
2023-01-23T13:26:29.199Z,1.20
2023-01-23T13:31:45.250Z,1.20
2023-01-23T13:36:51.386Z,1.40
2023-01-23T13:42:39.947Z,1.10
2023-01-23T14:21:05.391Z,1.37
2023-01-23T14:26:15.333Z,1.40
2023-01-23T14:31:24.257Z,1.20
2023-01-23T14:36:28.032Z,1.30
2023-01-23T14:41:38.254Z,1.50
2023-01-23T14:46:46.607Z,1.40
2023-01-23T14:51:59.741Z,1.43
2023-01-23T14:57:09.022Z,1.40
2023-01-23T15:02:28.042Z,1.30
2023-01-23T15:07:31.707Z,1.10
2023-01-23T15:12:37.368Z,1.20
2023-01-23T15:17:45.993Z,1.40
2023-01-23T15:22:49.674Z,1.03
2023-01-23T15:27:54.668Z,1.13
2023-01-23T15:32:59.124Z,1.33
2023-01-23T15:38:05.848Z,1.40
2023-01-23T15:43:14.318Z,1.40
2023-01-23T15:48:18.091Z,1.83
2023-01-23T15:53:22.052Z,2.00
2023-01-23T15:58:26.972Z,2.40
2023-01-23T16:03:30.590Z,2.33
2023-01-23T16:08:34.316Z,2.20
2023-01-23T16:13:39.368Z,2.47
2023-01-23T16:18:43.307Z,2.23
2023-01-23T16:23:48.001Z,2.57
2023-01-23T16:28:55.525Z,2.30
2023-01-23T16:34:03.043Z,2.27
2023-01-23T16:39:06.977Z,2.03
2023-01-23T16:44:13.050Z,2.13
2023-01-23T16:49:17.213Z,2.07
2023-01-23T16:54:22.031Z,2.57
2023-01-23T16:59:33.744Z,2.80
2023-01-23T17:04:37.282Z,2.33
2023-01-23T17:09:41.836Z,2.17
2023-01-23T17:14:48.599Z,2.43
2023-01-23T17:19:52.455Z,2.13
2023-01-23T17:24:56.036Z,2.10
2023-01-23T17:30:00.925Z,1.90
2023-01-23T17:35:08.358Z,1.60
2023-01-23T17:40:14.902Z,1.70
2023-01-23T17:45:22.779Z,2.50
2023-01-23T17:50:27.771Z,2.00
2023-01-23T17:55:32.555Z,2.53
2023-01-23T18:00:39.932Z,3.63
2023-01-23T18:05:43.859Z,2.93
2023-01-23T18:10:50.471Z,2.07
2023-01-23T18:16:06.488Z,2.10
2023-01-23T18:21:17.773Z,2.60
2023-01-23T18:26:39.286Z,2.50
2023-01-23T18:31:55.105Z,2.00
2023-01-23T18:37:09.390Z,4.00
2023-01-23T18:42:18.175Z,3.57
2023-01-23T18:47:25.510Z,2.47
2023-01-23T18:52:42.424Z,5.17
2023-01-23T18:58:08.812Z,3.67
2023-01-23T19:03:15.395Z,3.00
2023-01-23T19:08:28.561Z,2.87
2023-01-23T19:13:43.674Z,2.20
2023-01-23T19:18:52.598Z,2.70
2023-01-23T19:24:01.458Z,1.77
2023-01-23T19:29:20.558Z,2.70
2023-01-23T19:34:26.734Z,1.73
2023-01-23T19:39:30.782Z,1.90
2023-01-23T19:44:34.585Z,2.40
2023-01-23T19:49:39.849Z,1.60
2023-01-23T19:54:43.389Z,2.57
2023-01-23T19:59:47.068Z,1.60
2023-01-23T20:04:52.301Z,1.73
2023-01-23T20:09:56.022Z,1.60
2023-01-23T20:14:59.765Z,1.60
2023-01-23T20:20:05.211Z,1.67
2023-01-23T20:25:10.978Z,1.63
2023-01-23T20:30:16.767Z,1.37
2023-01-23T20:35:21.640Z,1.17
2023-01-23T20:40:25.225Z,1.20
2023-01-23T20:45:28.791Z,1.30
2023-01-23T20:50:33.902Z,1.20
2023-01-23T20:55:37.458Z,1.37
2023-01-23T21:00:41.536Z,1.50
2023-01-23T21:05:47.291Z,1.40
2023-01-23T21:10:52.427Z,0.87
2023-01-23T21:16:00.514Z,1.20
2023-01-23T21:21:08.387Z,1.50
2023-01-23T21:26:11.891Z,1.27
2023-01-23T21:31:17.988Z,1.10
2023-01-23T21:36:24.887Z,1.13
2023-01-23T21:41:28.696Z,1.27
2023-01-23T21:46:32.304Z,1.20
2023-01-23T21:51:37.924Z,1.10
2023-01-23T21:56:41.980Z,1.40
2023-01-23T22:01:46.814Z,1.53
2023-01-23T22:06:54.940Z,1.43
2023-01-23T22:11:58.834Z,1.37
2023-01-23T22:17:02.364Z,1.33
2023-01-23T22:22:07.678Z,1.20
2023-01-23T22:27:11.420Z,2.20
2023-01-23T22:32:15.016Z,1.60
2023-01-23T22:37:22.132Z,1.50
2023-01-23T22:42:26.067Z,1.47
2023-01-23T22:47:29.689Z,1.97
2023-01-23T22:52:36.247Z,1.70
2023-01-23T22:57:40.030Z,1.17
2023-01-23T23:02:43.695Z,1.70
2023-01-23T23:07:48.696Z,1.33
2023-01-23T23:12:52.225Z,2.00
2023-01-23T23:17:55.756Z,1.43
2023-01-23T23:23:01.285Z,1.63
2023-01-23T23:28:05.314Z,1.30
2023-01-23T23:33:08.973Z,2.70
2023-01-23T23:38:14.303Z,1.87
2023-01-23T23:43:18.046Z,1.30
2023-01-23T23:48:21.993Z,1.13
2023-01-23T23:53:27.181Z,1.30
2023-01-23T23:58:30.770Z,3.03
